Time;durP1;ratioP1;P1;durP2;ratioP2;P2;SDS_P1;SDS_P2;PMS_P1;PMS_P2;Temp;Humidity;BMP_temperature;BMP_pressure;BME280_temperature;BME280_humidity;BME280_pressure;Samples;Min_cycle;Max_cycle;Signal;HPM_P1;HPM_P2
2023/04/21 05:52:09;;;;;;;10.98;8.45;;;;;;;;;;10585266;27;20415;-81
2023/04/21 05:57:10;;;;;;;11.90;9.10;;;;;;;;;;10582737;28;20027;-81
2023/04/21 06:02:11;;;;;;;10.48;7.85;;;;;;;;;;10606600;22;20040;-84
2023/04/21 06:07:12;;;;;;;11.07;9.80;;;;;;;;;;10534568;28;20127;-84
2023/04/21 06:12:13;;;;;;;;;;;;;;;;;;10537370;28;20533;-84
2023/04/21 06:17:17;;;;;;;11.63;10.07;;;;;;;;;;10591616;28;19904;-84
2023/04/21 06:22:22;;;;;;;10.85;9.10;;;;;;;;;;10574416;28;20447;-85
2023/04/21 06:27:23;;;;;;;8.88;7.25;;;;;;;;;;10574098;28;20020;-84
2023/04/21 06:32:24;;;;;;;10.18;9.00;;;;;;;;;;10573423;28;20023;-84
2023/04/21 06:37:25;;;;;;;12.02;10.65;;;;;;;;;;10572478;28;20091;-85
2023/04/21 06:42:26;;;;;;;11.07;8.95;;;;;;;;;;10573000;28;20115;-85
2023/04/21 06:47:27;;;;;;;12.00;10.70;;;;;;;;;;10576342;28;20024;-85
2023/04/21 06:52:28;;;;;;;9.27;8.02;;;;;;;;;;10579348;28;20023;-85
2023/04/21 06:57:29;;;;;;;10.38;9.20;;;;;;;;;;10579783;28;20027;-84
2023/04/21 07:02:30;;;;;;;8.25;6.30;;;;;;;;;;10551150;28;20392;-83
2023/04/21 07:07:31;;;;;;;11.60;9.18;;;;;;;;;;10561894;28;20043;-83
2023/04/21 07:12:32;;;;;;;14.25;11.48;;;;;;;;;;10542693;28;20032;-84
2023/04/21 07:17:33;;;;;;;14.25;11.23;;;;;;;;;;10561472;28;20062;-84
2023/04/21 07:22:35;;;;;;;16.83;13.40;;;;;;;;;;10540860;28;20464;-83
2023/04/21 07:27:36;;;;;;;14.85;12.23;;;;;;;;;;10543661;28;20020;-82
2023/04/21 07:32:37;;;;;;;16.38;12.15;;;;;;;;;;10544108;28;20400;-83
2023/04/21 07:37:39;;;;;;;14.43;12.48;;;;;;;;;;10541376;28;20367;-82
2023/04/21 07:42:40;;;;;;;16.50;13.95;;;;;;;;;;10540630;28;20023;-85
2023/04/21 07:47:41;;;;;;;14.18;11.02;;;;;;;;;;10540229;28;20119;-84
2023/04/21 07:52:42;;;;;;;20.35;16.98;;;;;;;;;;10544586;28;20022;-84
2023/04/21 07:57:43;;;;;;;16.50;11.95;;;;;;;;;;10540574;28;20047;-84
2023/04/21 08:02:44;;;;;;;19.63;16.00;;;;;;;;;;10541232;28;20029;-83
2023/04/21 08:07:45;;;;;;;20.23;16.17;;;;;;;;;;10545043;28;20063;-84
2023/04/21 08:12:46;;;;;;;23.90;19.40;;;;;;;;;;10550440;28;20103;-85
2023/04/21 08:17:47;;;;;;;19.95;17.48;;;;;;;;;;10546058;28;20059;-81
2023/04/21 08:22:49;;;;;;;18.35;15.77;;;;;;;;;;10542908;28;20020;-83
2023/04/21 08:27:50;;;;;;;25.27;19.40;;;;;;;;;;10544652;28;20036;-82
2023/04/21 08:32:51;;;;;;;21.73;17.17;;;;;;;;;;10544511;28;20458;-82
2023/04/21 08:37:52;;;;;;;18.73;16.15;;;;;;;;;;10544357;28;20020;-83
2023/04/21 08:42:53;;;;;;;24.38;20.05;;;;;;;;;;10544486;28;20106;-81
2023/04/21 08:47:55;;;;;;;41.17;17.73;;;;;;;;;;10574325;28;20088;-81
2023/04/21 08:52:57;;;;;;;15.48;12.10;;;;;;;;;;10542543;28;20020;-80
2023/04/21 08:57:58;;;;;;;23.67;17.17;;;;;;;;;;10545612;28;20054;-81
2023/04/21 09:03:00;;;;;;;14.75;12.18;;;;;;;;;;10545940;28;20040;-81
2023/04/21 09:08:11;;;;;;;18.02;14.95;;;;;;;;;;10542944;28;20028;-81
2023/04/21 09:13:12;;;;;;;15.90;12.30;;;;;;;;;;10544955;28;20076;-80
2023/04/21 09:18:14;;;;;;;16.92;12.95;;;;;;;;;;10545719;28;20071;-82
2023/04/21 09:23:15;;;;;;;22.55;18.52;;;;;;;;;;10545314;28;20039;-82
2023/04/21 09:28:16;;;;;;;17.20;14.80;;;;;;;;;;10551525;28;20130;-81
2023/04/21 09:33:17;;;;;;;15.48;11.43;;;;;;;;;;10549274;28;20085;-80
2023/04/21 09:38:21;;;;;;;13.05;11.20;;;;;;;;;;10543316;28;20087;-81
2023/04/21 09:43:22;;;;;;;16.02;12.20;;;;;;;;;;10537246;28;20031;-82
2023/04/21 09:48:26;;;;;;;14.30;12.45;;;;;;;;;;10543320;28;20044;-84
2023/04/21 09:53:28;;;;;;;22.80;18.92;;;;;;;;;;10554174;28;20024;-84
2023/04/21 09:58:30;;;;;;;23.42;16.15;;;;;;;;;;10535043;28;20105;-85
2023/04/21 10:03:31;;;;;;;15.55;12.07;;;;;;;;;;10536158;28;20500;-84
2023/04/21 10:08:56;;;;;;;14.10;10.32;;;;;;;;;;10555657;28;20059;-83
2023/04/21 10:13:57;;;;;;;27.60;23.45;;;;;;;;;;10575573;28;20032;-84
2023/04/21 10:18:58;;;;;;;13.25;9.98;;;;;;;;;;10561098;28;20024;-84
2023/04/21 10:23:59;;;;;;;14.02;12.20;;;;;;;;;;10559874;28;20024;-85
2023/04/21 10:29:02;;;;;;;12.20;10.50;;;;;;;;;;10565090;28;20054;-82
2023/04/21 10:34:12;;;;;;;17.42;11.20;;;;;;;;;;10562241;28;20039;-84
2023/04/21 10:39:27;;;;;;;22.17;16.53;;;;;;;;;;10566389;28;20028;-81
2023/04/21 10:44:31;;;;;;;15.43;11.73;;;;;;;;;;10567953;28;20028;-82
2023/04/21 10:49:37;;;;;;;20.15;15.65;;;;;;;;;;10565822;28;20058;-81
2023/04/21 10:54:59;;;;;;;15.88;8.75;;;;;;;;;;10584949;28;20052;-81
2023/04/21 11:00:08;;;;;;;16.67;13.60;;;;;;;;;;10575787;28;20028;-82
2023/04/21 11:05:24;;;;;;;16.40;12.50;;;;;;;;;;10567089;28;20054;-83
2023/04/21 11:10:51;;;;;;;14.80;10.45;;;;;;;;;;10551479;28;20039;-81
2023/04/21 11:15:59;;;;;;;15.13;12.07;;;;;;;;;;10552911;28;20028;-82
2023/04/21 11:21:08;;;;;;;20.25;14.35;;;;;;;;;;10557626;28;20056;-84
2023/04/21 11:26:09;;;;;;;14.80;11.88;;;;;;;;;;10554916;28;20410;-84
2023/04/21 11:31:10;;;;;;;14.27;11.85;;;;;;;;;;10549729;28;20056;-82
2023/04/21 11:36:11;;;;;;;15.88;12.07;;;;;;;;;;10548520;28;20043;-81
2023/04/21 11:41:20;;;;;;;18.85;14.82;;;;;;;;;;10557684;28;20026;-82
2023/04/21 11:46:25;;;;;;;13.52;11.85;;;;;;;;;;10562150;28;20050;-82
2023/04/21 11:51:27;;;;;;;15.45;10.68;;;;;;;;;;10556381;28;20035;-84
2023/04/21 11:56:28;;;;;;;13.10;10.77;;;;;;;;;;10555821;28;20024;-84
2023/04/21 12:01:29;;;;;;;15.82;13.80;;;;;;;;;;10554204;28;20099;-83
2023/04/21 12:06:30;;;;;;;15.95;13.77;;;;;;;;;;10609500;22;20074;-82
2023/04/21 12:11:35;;;;;;;15.10;11.43;;;;;;;;;;10598748;28;20038;-83
2023/04/21 12:16:42;;;;;;;16.55;13.60;;;;;;;;;;10571423;28;20160;-82
2023/04/21 12:21:44;;;;;;;12.85;10.85;;;;;;;;;;10576207;28;20032;-83
2023/04/21 12:26:49;;;;;;;16.88;13.63;;;;;;;;;;10576321;28;20469;-84
2023/04/21 12:31:56;;;;;;;24.17;21.13;;;;;;;;;;10554591;28;20016;-82
2023/04/21 12:36:58;;;;;;;14.23;12.50;;;;;;;;;;10551006;28;20032;-83
2023/04/21 12:47:58;;;;;;;25.15;18.80;;;;;;;;;;10571260;28;20388;-84
2023/04/21 12:53:04;;;;;;;16.48;14.70;;;;;;;;;;10551099;28;20024;-83
2023/04/21 12:58:34;;;;;;;18.15;16.25;;;;;;;;;;10533779;28;20418;-83
2023/04/21 13:15:11;;;;;;;17.35;13.70;;;;;;;;;;10444220;28;20029;-83
2023/04/21 13:20:13;;;;;;;18.40;16.17;;;;;;;;;;10428603;28;20060;-83
2023/04/21 13:25:19;;;;;;;16.45;14.40;;;;;;;;;;10420043;28;20151;-84
2023/04/21 13:30:21;;;;;;;16.50;14.75;;;;;;;;;;10437916;28;20033;-83
2023/04/21 13:35:22;;;;;;;12.73;10.70;;;;;;;;;;10548216;28;20458;-82
2023/04/21 13:40:23;;;;;;;14.45;10.25;;;;;;;;;;10568672;28;20028;-82
2023/04/21 13:45:26;;;;;;;15.35;12.52;;;;;;;;;;10548876;28;20035;-82
2023/04/21 13:50:27;;;;;;;13.63;12.23;;;;;;;;;;10550605;28;20051;-83
2023/04/21 13:55:30;;;;;;;13.60;11.18;;;;;;;;;;10549742;28;20028;-85
2023/04/21 14:00:31;;;;;;;12.02;10.27;;;;;;;;;;10549681;28;20124;-85
2023/04/21 14:05:32;;;;;;;14.25;11.70;;;;;;;;;;10550630;28;20036;-86
2023/04/21 14:10:33;;;;;;;14.60;12.45;;;;;;;;;;10552149;28;20028;-85
2023/04/21 14:15:34;;;;;;;17.67;13.85;;;;;;;;;;10558473;28;20074;-84
2023/04/21 14:20:37;;;;;;;18.40;15.15;;;;;;;;;;10550011;28;20040;-84
2023/04/21 14:25:38;;;;;;;19.98;16.45;;;;;;;;;;10570745;28;20389;-85
2023/04/21 14:30:41;;;;;;;14.30;12.80;;;;;;;;;;10550388;28;20032;-85
2023/04/21 14:35:42;;;;;;;15.15;10.80;;;;;;;;;;10555501;28;20031;-84
2023/04/21 14:40:43;;;;;;;12.25;10.20;;;;;;;;;;10558655;28;20024;-85
2023/04/21 14:45:44;;;;;;;13.10;10.68;;;;;;;;;;10566581;28;20028;-85
2023/04/21 14:50:45;;;;;;;13.45;10.55;;;;;;;;;;10550866;28;20032;-85
2023/04/21 14:55:46;;;;;;;18.10;13.68;;;;;;;;;;10556183;28;20028;-85
2023/04/21 15:00:47;;;;;;;18.00;15.85;;;;;;;;;;10571216;28;20074;-85
2023/04/21 15:05:49;;;;;;;15.70;13.23;;;;;;;;;;10553433;28;20062;-85
2023/04/21 15:10:50;;;;;;;13.52;11.60;;;;;;;;;;10554417;28;20032;-85
2023/04/21 15:15:51;;;;;;;11.45;9.85;;;;;;;;;;10558646;28;20084;-84
2023/04/21 15:20:56;;;;;;;15.60;12.65;;;;;;;;;;10556598;28;20040;-85
2023/04/21 15:25:57;;;;;;;12.05;9.55;;;;;;;;;;10554824;28;20224;-84
2023/04/21 15:30:58;;;;;;;11.20;9.18;;;;;;;;;;10570654;28;20049;-84
2023/04/21 15:35:59;;;;;;;11.27;9.63;;;;;;;;;;10569213;28;20089;-85
2023/04/21 15:41:00;;;;;;;10.90;7.90;;;;;;;;;;10558447;28;20020;-84
2023/04/21 15:46:01;;;;;;;10.60;9.45;;;;;;;;;;10564350;28;20024;-85
2023/04/21 15:51:03;;;;;;;11.95;10.20;;;;;;;;;;10566812;28;20378;-85
2023/04/21 15:56:04;;;;;;;12.68;10.25;;;;;;;;;;10561441;28;20088;-86
2023/04/21 16:01:05;;;;;;;11.00;8.93;;;;;;;;;;10554237;28;20070;-84
2023/04/21 16:06:06;;;;;;;15.90;13.57;;;;;;;;;;10549314;28;20190;-85
2023/04/21 16:11:07;;;;;;;14.73;13.07;;;;;;;;;;10541397;28;20047;-85
2023/04/21 16:16:08;;;;;;;9.93;8.93;;;;;;;;;;10539743;28;20020;-85
2023/04/21 16:21:09;;;;;;;9.48;7.93;;;;;;;;;;10558818;28;20024;-83
2023/04/21 16:26:10;;;;;;;11.63;8.85;;;;;;;;;;10541220;28;20450;-84
2023/04/21 16:31:11;;;;;;;12.55;11.23;;;;;;;;;;10546991;28;20032;-86
2023/04/21 16:36:12;;;;;;;10.15;8.93;;;;;;;;;;10569358;28;20051;-85
2023/04/21 16:41:15;;;;;;;13.85;10.40;;;;;;;;;;10555856;28;20028;-85
2023/04/21 16:46:16;;;;;;;13.40;11.70;;;;;;;;;;10561519;28;20084;-85
2023/04/21 16:51:17;;;;;;;12.43;11.13;;;;;;;;;;10560238;28;20032;-85
2023/04/21 16:56:19;;;;;;;12.23;10.57;;;;;;;;;;10554784;28;20044;-85
2023/04/21 17:01:20;;;;;;;11.18;8.90;;;;;;;;;;10555096;28;20079;-84
2023/04/21 17:06:21;;;;;;;9.50;8.43;;;;;;;;;;10556936;28;20036;-84
2023/04/21 17:11:22;;;;;;;8.20;7.15;;;;;;;;;;10562375;28;20077;-84
2023/04/21 17:16:23;;;;;;;12.15;9.50;;;;;;;;;;10551280;28;20024;-84
2023/04/21 17:21:24;;;;;;;13.18;11.60;;;;;;;;;;10551502;28;20032;-84
2023/04/21 17:26:25;;;;;;;13.57;11.80;;;;;;;;;;10548736;28;20093;-84
2023/04/21 17:31:31;;;;;;;7.80;7.00;;;;;;;;;;10566938;28;20035;-84
2023/04/21 17:36:32;;;;;;;16.08;11.50;;;;;;;;;;10557755;28;20028;-84
2023/04/21 17:41:33;;;;;;;7.65;6.60;;;;;;;;;;10540454;28;20035;-85
2023/04/21 17:46:39;;;;;;;8.13;7.32;;;;;;;;;;10527192;28;20024;-85
2023/04/21 17:51:40;;;;;;;10.68;8.38;;;;;;;;;;10526728;28;20032;-85
2023/04/21 17:56:41;;;;;;;9.13;7.75;;;;;;;;;;10527787;28;20024;-84
2023/04/21 18:01:43;;;;;;;6.90;6.20;;;;;;;;;;10532837;28;20147;-84
2023/04/21 18:06:44;;;;;;;10.07;8.80;;;;;;;;;;10630793;22;20131;-84
2023/04/21 18:11:45;;;;;;;7.40;6.60;;;;;;;;;;10584634;28;20031;-84
2023/04/21 18:16:46;;;;;;;10.63;8.60;;;;;;;;;;10585786;28;20027;-85
2023/04/21 18:21:47;;;;;;;11.20;9.95;;;;;;;;;;10599024;28;20027;-83
2023/04/21 18:26:50;;;;;;;10.30;8.98;;;;;;;;;;10578275;28;20441;-82
2023/04/21 18:31:51;;;;;;;7.95;7.15;;;;;;;;;;10579552;28;20008;-83
2023/04/21 18:36:52;;;;;;;9.52;8.15;;;;;;;;;;10584485;28;20027;-83
2023/04/21 18:41:53;;;;;;;11.75;9.25;;;;;;;;;;10610357;28;20053;-83
2023/04/21 18:46:54;;;;;;;9.15;8.10;;;;;;;;;;10589742;28;20104;-83
2023/04/21 18:51:55;;;;;;;8.90;8.02;;;;;;;;;;10588978;28;20089;-84
2023/04/21 18:56:57;;;;;;;10.45;8.93;;;;;;;;;;10593117;27;20027;-84
2023/04/21 19:01:59;;;;;;;10.80;9.63;;;;;;;;;;10598482;28;20035;-84
2023/04/21 19:07:00;;;;;;;8.00;7.20;;;;;;;;;;10594736;28;20028;-84
2023/04/21 19:12:02;;;;;;;10.20;9.20;;;;;;;;;;10608257;28;20024;-82
